Portada
METAR-TAF:

METAR-TAF

Aeropuertos :

Rabat, Marruecos

Aeropuerto de Rabat-Salé

latitud: 34-03N, longitud: 006-46W, altitud: 84 m

Observación

El informe se hizo hace 20 minutos, a las 18:00 UTC
Viento 7 kt del norte-noroeste
Temperatura 25°C
Humedad 61%
Presión 1018 hPa
Visibilidad 10 km o más
sin nubes por debajo de 1500 m y sin presencia de cumulonimbus.

METAR: GMME 221800Z 34007KT CAVOK 25/17 Q1018 NOSIG

Hora: 18:20 (18:20 UTC)

Pronóstico

El informe se hizo hace 1 hora y 20 minutos, a las 17:00 UTC
Pronóstico válido del 22 a las 18 UTC al 23 a las 24 UTC
Viento 8 kt del noreste
Visibilidad 10 km o más
sin nubes por debajo de 1500 m y sin presencia de cumulonimbus.
Temporalmente
del 23 a las 00 UTC al 23 a las 06 UTC
Viento 6 kt del este
Visibilidad: 8000 m

TAF: GMME 221700Z 2218/2324 04008KT CAVOK TEMPO 2300/2306 10006KT 8000 NSC

Observaciones y pronósticos meteorológicos de más de 4000 aeropuertos (mensajes METAR y TAF).

Los puntos amarillos y rojos representan las estaciones disponibles.

Ponga el ratón en el punto deseado para ver el nombre de la estación.

Haga clic para ver las observaciones y los pronósticos meteorológicos.

Para cambiar el mapa : haga clic en los botones verdes con una cruz de color negro para hacer un zoom, en el botón verde con un guión para alejar o en las flechas verdes para mapas adyacentes.


METAR-TAF: